sensor_id;sensor_type;location;lat;lon;timestamp;P1;durP1;ratioP1;P2;durP2;ratioP2
69026;SDS011;56080;47.594;19.116;2022-12-18T00:04:02;29.10;;;12.50;;
69026;SDS011;56080;47.594;19.116;2022-12-18T00:09:00;29.10;;;12.50;;
69026;SDS011;56080;47.594;19.116;2022-12-18T00:14:00;26.00;;;11.70;;
69026;SDS011;56080;47.594;19.116;2022-12-18T00:19:01;26.00;;;11.70;;
69026;SDS011;56080;47.594;19.116;2022-12-18T00:24:00;29.70;;;13.00;;
69026;SDS011;56080;47.594;19.116;2022-12-18T00:29:01;29.70;;;13.00;;
69026;SDS011;56080;47.594;19.116;2022-12-18T00:34:06;26.20;;;11.50;;
69026;SDS011;56080;47.594;19.116;2022-12-18T00:39:01;26.20;;;11.50;;
69026;SDS011;56080;47.594;19.116;2022-12-18T00:44:00;25.40;;;11.80;;
69026;SDS011;56080;47.594;19.116;2022-12-18T00:48:59;25.40;;;11.80;;
69026;SDS011;56080;47.594;19.116;2022-12-18T00:54:00;27.80;;;11.80;;
69026;SDS011;56080;47.594;19.116;2022-12-18T00:58:59;27.80;;;11.80;;
69026;SDS011;56080;47.594;19.116;2022-12-18T01:04:00;27.10;;;11.20;;
69026;SDS011;56080;47.594;19.116;2022-12-18T01:08:59;27.10;;;11.20;;
69026;SDS011;56080;47.594;19.116;2022-12-18T01:14:01;26.00;;;12.00;;
69026;SDS011;56080;47.594;19.116;2022-12-18T01:19:02;26.00;;;12.00;;
69026;SDS011;56080;47.594;19.116;2022-12-18T01:24:02;24.70;;;11.10;;
69026;SDS011;56080;47.594;19.116;2022-12-18T01:29:00;24.70;;;11.10;;
69026;SDS011;56080;47.594;19.116;2022-12-18T01:34:00;25.20;;;9.90;;
69026;SDS011;56080;47.594;19.116;2022-12-18T01:39:01;25.20;;;9.90;;
69026;SDS011;56080;47.594;19.116;2022-12-18T01:43:59;22.30;;;8.80;;
69026;SDS011;56080;47.594;19.116;2022-12-18T01:49:02;22.30;;;8.80;;
69026;SDS011;56080;47.594;19.116;2022-12-18T01:54:00;23.10;;;10.00;;
69026;SDS011;56080;47.594;19.116;2022-12-18T01:59:10;23.10;;;10.00;;
69026;SDS011;56080;47.594;19.116;2022-12-18T02:09:10;22.80;;;9.90;;
69026;SDS011;56080;47.594;19.116;2022-12-18T02:19:06;22.90;;;11.00;;
69026;SDS011;56080;47.594;19.116;2022-12-18T02:29:13;22.30;;;9.70;;
69026;SDS011;56080;47.594;19.116;2022-12-18T02:34:02;26.70;;;11.70;;
69026;SDS011;56080;47.594;19.116;2022-12-18T02:39:00;26.70;;;11.70;;
69026;SDS011;56080;47.594;19.116;2022-12-18T02:44:06;23.70;;;11.10;;
69026;SDS011;56080;47.594;19.116;2022-12-18T02:54:06;27.00;;;11.00;;
69026;SDS011;56080;47.594;19.116;2022-12-18T02:59:13;27.00;;;11.00;;
69026;SDS011;56080;47.594;19.116;2022-12-18T03:04:05;25.90;;;10.40;;
69026;SDS011;56080;47.594;19.116;2022-12-18T03:09:04;25.90;;;10.40;;
69026;SDS011;56080;47.594;19.116;2022-12-18T03:14:03;26.90;;;11.50;;
69026;SDS011;56080;47.594;19.116;2022-12-18T03:19:11;26.90;;;11.50;;
69026;SDS011;56080;47.594;19.116;2022-12-18T03:24:01;24.90;;;11.30;;
69026;SDS011;56080;47.594;19.116;2022-12-18T03:29:06;24.90;;;11.30;;
69026;SDS011;56080;47.594;19.116;2022-12-18T03:34:04;26.10;;;10.50;;
69026;SDS011;56080;47.594;19.116;2022-12-18T03:39:00;26.10;;;10.50;;
69026;SDS011;56080;47.594;19.116;2022-12-18T03:49:08;25.40;;;10.60;;
69026;SDS011;56080;47.594;19.116;2022-12-18T03:54:00;25.40;;;10.80;;
69026;SDS011;56080;47.594;19.116;2022-12-18T03:59:00;25.40;;;10.80;;
69026;SDS011;56080;47.594;19.116;2022-12-18T04:04:00;25.40;;;10.80;;
69026;SDS011;56080;47.594;19.116;2022-12-18T04:09:00;25.40;;;10.80;;
69026;SDS011;56080;47.594;19.116;2022-12-18T04:13:59;27.80;;;12.20;;
69026;SDS011;56080;47.594;19.116;2022-12-18T04:19:00;27.80;;;12.20;;
69026;SDS011;56080;47.594;19.116;2022-12-18T04:23:59;25.00;;;10.40;;
69026;SDS011;56080;47.594;19.116;2022-12-18T04:29:00;25.00;;;10.40;;
69026;SDS011;56080;47.594;19.116;2022-12-18T04:34:00;22.90;;;10.40;;
69026;SDS011;56080;47.594;19.116;2022-12-18T04:39:00;22.90;;;10.40;;
69026;SDS011;56080;47.594;19.116;2022-12-18T04:44:00;28.30;;;12.10;;
69026;SDS011;56080;47.594;19.116;2022-12-18T04:48:59;28.30;;;12.10;;
69026;SDS011;56080;47.594;19.116;2022-12-18T04:53:59;23.20;;;10.70;;
69026;SDS011;56080;47.594;19.116;2022-12-18T04:59:00;23.20;;;10.70;;
69026;SDS011;56080;47.594;19.116;2022-12-18T05:04:01;27.00;;;11.40;;
69026;SDS011;56080;47.594;19.116;2022-12-18T05:08:59;27.00;;;11.40;;
69026;SDS011;56080;47.594;19.116;2022-12-18T05:14:00;26.20;;;12.00;;
69026;SDS011;56080;47.594;19.116;2022-12-18T05:18:59;26.20;;;12.00;;
69026;SDS011;56080;47.594;19.116;2022-12-18T05:24:00;23.80;;;10.70;;
69026;SDS011;56080;47.594;19.116;2022-12-18T05:29:00;23.80;;;10.70;;
69026;SDS011;56080;47.594;19.116;2022-12-18T05:33:59;28.20;;;11.50;;
69026;SDS011;56080;47.594;19.116;2022-12-18T05:39:00;28.20;;;11.50;;
69026;SDS011;56080;47.594;19.116;2022-12-18T05:44:00;23.40;;;10.90;;
69026;SDS011;56080;47.594;19.116;2022-12-18T05:54:00;26.30;;;11.20;;
69026;SDS011;56080;47.594;19.116;2022-12-18T05:59:01;26.30;;;11.20;;
69026;SDS011;56080;47.594;19.116;2022-12-18T06:04:00;23.60;;;10.40;;
69026;SDS011;56080;47.594;19.116;2022-12-18T06:09:00;23.60;;;10.40;;
69026;SDS011;56080;47.594;19.116;2022-12-18T06:14:07;26.00;;;12.20;;
69026;SDS011;56080;47.594;19.116;2022-12-18T06:24:00;27.30;;;12.50;;
69026;SDS011;56080;47.594;19.116;2022-12-18T06:29:00;27.30;;;12.50;;
69026;SDS011;56080;47.594;19.116;2022-12-18T06:34:02;27.90;;;12.90;;
69026;SDS011;56080;47.594;19.116;2022-12-18T06:39:00;27.90;;;12.90;;
69026;SDS011;56080;47.594;19.116;2022-12-18T06:44:00;28.20;;;12.10;;
69026;SDS011;56080;47.594;19.116;2022-12-18T06:49:00;28.20;;;12.10;;
69026;SDS011;56080;47.594;19.116;2022-12-18T06:54:00;23.60;;;10.60;;
69026;SDS011;56080;47.594;19.116;2022-12-18T06:59:00;23.60;;;10.60;;
69026;SDS011;56080;47.594;19.116;2022-12-18T07:04:02;25.30;;;11.00;;
69026;SDS011;56080;47.594;19.116;2022-12-18T07:09:00;25.30;;;11.00;;
69026;SDS011;56080;47.594;19.116;2022-12-18T07:14:00;22.90;;;10.20;;
69026;SDS011;56080;47.594;19.116;2022-12-18T07:19:00;22.90;;;10.20;;
69026;SDS011;56080;47.594;19.116;2022-12-18T07:24:00;23.20;;;10.30;;
69026;SDS011;56080;47.594;19.116;2022-12-18T07:29:00;23.20;;;10.30;;
69026;SDS011;56080;47.594;19.116;2022-12-18T07:34:00;24.10;;;11.00;;
69026;SDS011;56080;47.594;19.116;2022-12-18T07:39:00;24.10;;;11.00;;
69026;SDS011;56080;47.594;19.116;2022-12-18T07:44:00;25.70;;;11.70;;
69026;SDS011;56080;47.594;19.116;2022-12-18T07:49:01;25.70;;;11.70;;
69026;SDS011;56080;47.594;19.116;2022-12-18T07:54:03;27.10;;;11.10;;
69026;SDS011;56080;47.594;19.116;2022-12-18T07:59:03;27.10;;;11.10;;
69026;SDS011;56080;47.594;19.116;2022-12-18T08:04:02;30.80;;;13.50;;
69026;SDS011;56080;47.594;19.116;2022-12-18T08:09:02;30.80;;;13.50;;
69026;SDS011;56080;47.594;19.116;2022-12-18T08:14:00;32.00;;;15.20;;
69026;SDS011;56080;47.594;19.116;2022-12-18T08:19:02;32.00;;;15.20;;
69026;SDS011;56080;47.594;19.116;2022-12-18T08:29:01;28.70;;;14.30;;
69026;SDS011;56080;47.594;19.116;2022-12-18T08:34:00;31.60;;;15.60;;
69026;SDS011;56080;47.594;19.116;2022-12-18T08:39:00;31.60;;;15.60;;
69026;SDS011;56080;47.594;19.116;2022-12-18T08:44:09;35.30;;;15.00;;
69026;SDS011;56080;47.594;19.116;2022-12-18T08:49:00;35.30;;;15.00;;
69026;SDS011;56080;47.594;19.116;2022-12-18T08:54:00;33.90;;;15.50;;
69026;SDS011;56080;47.594;19.116;2022-12-18T08:59:01;33.90;;;15.50;;
69026;SDS011;56080;47.594;19.116;2022-12-18T09:04:00;32.50;;;15.20;;
69026;SDS011;56080;47.594;19.116;2022-12-18T09:09:00;32.50;;;15.20;;
69026;SDS011;56080;47.594;19.116;2022-12-18T09:14:00;34.90;;;17.70;;
69026;SDS011;56080;47.594;19.116;2022-12-18T09:19:00;34.90;;;17.70;;
69026;SDS011;56080;47.594;19.116;2022-12-18T09:24:00;34.50;;;15.80;;
69026;SDS011;56080;47.594;19.116;2022-12-18T09:29:00;34.50;;;15.80;;
69026;SDS011;56080;47.594;19.116;2022-12-18T09:34:00;32.90;;;16.30;;
69026;SDS011;56080;47.594;19.116;2022-12-18T09:39:00;32.90;;;16.30;;
69026;SDS011;56080;47.594;19.116;2022-12-18T09:49:06;33.20;;;15.50;;
69026;SDS011;56080;47.594;19.116;2022-12-18T09:54:06;29.30;;;14.90;;
69026;SDS011;56080;47.594;19.116;2022-12-18T09:59:05;29.30;;;14.90;;
69026;SDS011;56080;47.594;19.116;2022-12-18T10:04:00;33.50;;;15.90;;
69026;SDS011;56080;47.594;19.116;2022-12-18T10:14:09;30.50;;;15.50;;
69026;SDS011;56080;47.594;19.116;2022-12-18T10:29:01;29.80;;;14.00;;
69026;SDS011;56080;47.594;19.116;2022-12-18T10:34:00;35.30;;;17.00;;
69026;SDS011;56080;47.594;19.116;2022-12-18T10:39:13;35.30;;;17.00;;
69026;SDS011;56080;47.594;19.116;2022-12-18T10:44:12;27.40;;;13.80;;
69026;SDS011;56080;47.594;19.116;2022-12-18T10:49:02;27.40;;;13.80;;
69026;SDS011;56080;47.594;19.116;2022-12-18T10:54:03;33.80;;;15.80;;
69026;SDS011;56080;47.594;19.116;2022-12-18T10:59:06;33.80;;;15.80;;
69026;SDS011;56080;47.594;19.116;2022-12-18T11:04:01;27.70;;;13.70;;
69026;SDS011;56080;47.594;19.116;2022-12-18T11:09:26;27.70;;;13.70;;
69026;SDS011;56080;47.594;19.116;2022-12-18T11:14:06;29.50;;;13.50;;
69026;SDS011;56080;47.594;19.116;2022-12-18T11:24:01;27.70;;;14.70;;
69026;SDS011;56080;47.594;19.116;2022-12-18T11:29:10;27.70;;;14.70;;
69026;SDS011;56080;47.594;19.116;2022-12-18T11:34:20;23.40;;;10.90;;
69026;SDS011;56080;47.594;19.116;2022-12-18T11:39:05;23.40;;;10.90;;
69026;SDS011;56080;47.594;19.116;2022-12-18T11:44:03;21.70;;;10.50;;
69026;SDS011;56080;47.594;19.116;2022-12-18T11:54:01;27.50;;;12.80;;
69026;SDS011;56080;47.594;19.116;2022-12-18T12:09:31;23.60;;;11.60;;
69026;SDS011;56080;47.594;19.116;2022-12-18T12:39:06;24.30;;;11.00;;
69026;SDS011;56080;47.594;19.116;2022-12-18T12:44:14;21.80;;;10.50;;
69026;SDS011;56080;47.594;19.116;2022-12-18T12:49:03;21.80;;;10.50;;
69026;SDS011;56080;47.594;19.116;2022-12-18T12:54:04;25.90;;;11.90;;
69026;SDS011;56080;47.594;19.116;2022-12-18T13:04:12;20.30;;;9.30;;
69026;SDS011;56080;47.594;19.116;2022-12-18T13:09:03;20.30;;;9.30;;
69026;SDS011;56080;47.594;19.116;2022-12-18T13:14:03;23.20;;;10.60;;
69026;SDS011;56080;47.594;19.116;2022-12-18T13:19:03;23.20;;;10.60;;
69026;SDS011;56080;47.594;19.116;2022-12-18T13:24:21;22.50;;;9.50;;
69026;SDS011;56080;47.594;19.116;2022-12-18T13:29:02;22.50;;;9.50;;
69026;SDS011;56080;47.594;19.116;2022-12-18T13:34:20;22.20;;;9.90;;
69026;SDS011;56080;47.594;19.116;2022-12-18T13:39:20;22.20;;;9.90;;
69026;SDS011;56080;47.594;19.116;2022-12-18T13:44:10;20.40;;;10.10;;
69026;SDS011;56080;47.594;19.116;2022-12-18T13:54:06;19.90;;;9.20;;
69026;SDS011;56080;47.594;19.116;2022-12-18T14:04:11;18.40;;;9.60;;
69026;SDS011;56080;47.594;19.116;2022-12-18T14:09:00;18.40;;;9.60;;
69026;SDS011;56080;47.594;19.116;2022-12-18T14:14:02;19.40;;;9.70;;
69026;SDS011;56080;47.594;19.116;2022-12-18T14:19:05;19.40;;;9.70;;
69026;SDS011;56080;47.594;19.116;2022-12-18T14:24:13;20.80;;;9.70;;
69026;SDS011;56080;47.594;19.116;2022-12-18T14:34:00;23.40;;;11.40;;
69026;SDS011;56080;47.594;19.116;2022-12-18T14:39:01;23.40;;;11.40;;
69026;SDS011;56080;47.594;19.116;2022-12-18T14:44:05;24.90;;;11.60;;
69026;SDS011;56080;47.594;19.116;2022-12-18T14:49:03;24.90;;;11.60;;
69026;SDS011;56080;47.594;19.116;2022-12-18T14:54:05;20.50;;;9.90;;
69026;SDS011;56080;47.594;19.116;2022-12-18T14:59:04;20.50;;;9.90;;
69026;SDS011;56080;47.594;19.116;2022-12-18T15:04:02;26.50;;;12.10;;
69026;SDS011;56080;47.594;19.116;2022-12-18T15:09:02;26.50;;;12.10;;
69026;SDS011;56080;47.594;19.116;2022-12-18T15:19:01;28.90;;;13.40;;
69026;SDS011;56080;47.594;19.116;2022-12-18T15:24:01;29.30;;;15.10;;
69026;SDS011;56080;47.594;19.116;2022-12-18T15:29:02;29.30;;;15.10;;
69026;SDS011;56080;47.594;19.116;2022-12-18T15:34:10;25.00;;;13.20;;
69026;SDS011;56080;47.594;19.116;2022-12-18T15:39:01;25.00;;;13.20;;
69026;SDS011;56080;47.594;19.116;2022-12-18T15:44:02;27.80;;;14.20;;
69026;SDS011;56080;47.594;19.116;2022-12-18T15:49:04;27.80;;;14.20;;
69026;SDS011;56080;47.594;19.116;2022-12-18T15:54:04;35.80;;;17.10;;
69026;SDS011;56080;47.594;19.116;2022-12-18T15:59:04;35.80;;;17.10;;
69026;SDS011;56080;47.594;19.116;2022-12-18T16:04:02;30.90;;;14.50;;
69026;SDS011;56080;47.594;19.116;2022-12-18T16:09:00;30.90;;;14.50;;
69026;SDS011;56080;47.594;19.116;2022-12-18T16:14:02;28.80;;;13.50;;
69026;SDS011;56080;47.594;19.116;2022-12-18T16:19:01;28.80;;;13.50;;
69026;SDS011;56080;47.594;19.116;2022-12-18T16:24:03;28.10;;;13.80;;
69026;SDS011;56080;47.594;19.116;2022-12-18T16:29:01;28.10;;;13.80;;
69026;SDS011;56080;47.594;19.116;2022-12-18T16:34:11;26.50;;;12.90;;
69026;SDS011;56080;47.594;19.116;2022-12-18T16:39:01;26.50;;;12.90;;
69026;SDS011;56080;47.594;19.116;2022-12-18T16:44:05;31.80;;;16.90;;
69026;SDS011;56080;47.594;19.116;2022-12-18T16:49:00;31.80;;;16.90;;
69026;SDS011;56080;47.594;19.116;2022-12-18T16:54:03;30.60;;;14.40;;
69026;SDS011;56080;47.594;19.116;2022-12-18T16:59:04;30.60;;;14.40;;
69026;SDS011;56080;47.594;19.116;2022-12-18T17:04:03;32.40;;;15.10;;
69026;SDS011;56080;47.594;19.116;2022-12-18T17:09:06;32.40;;;15.10;;
69026;SDS011;56080;47.594;19.116;2022-12-18T17:14:09;27.60;;;13.40;;
69026;SDS011;56080;47.594;19.116;2022-12-18T17:19:02;27.60;;;13.40;;
69026;SDS011;56080;47.594;19.116;2022-12-18T17:24:01;28.20;;;14.40;;
69026;SDS011;56080;47.594;19.116;2022-12-18T17:29:02;28.20;;;14.40;;
69026;SDS011;56080;47.594;19.116;2022-12-18T17:34:02;27.80;;;13.40;;
69026;SDS011;56080;47.594;19.116;2022-12-18T17:39:04;27.80;;;13.40;;
69026;SDS011;56080;47.594;19.116;2022-12-18T17:44:03;30.50;;;14.40;;
69026;SDS011;56080;47.594;19.116;2022-12-18T17:49:01;30.50;;;14.40;;
69026;SDS011;56080;47.594;19.116;2022-12-18T17:54:01;33.30;;;16.70;;
69026;SDS011;56080;47.594;19.116;2022-12-18T17:59:00;33.30;;;16.70;;
69026;SDS011;56080;47.594;19.116;2022-12-18T18:04:05;32.30;;;17.60;;
69026;SDS011;56080;47.594;19.116;2022-12-18T18:09:00;32.30;;;17.60;;
69026;SDS011;56080;47.594;19.116;2022-12-18T18:14:13;30.30;;;14.90;;
69026;SDS011;56080;47.594;19.116;2022-12-18T18:19:02;30.30;;;14.90;;
69026;SDS011;56080;47.594;19.116;2022-12-18T18:24:04;28.90;;;15.70;;
69026;SDS011;56080;47.594;19.116;2022-12-18T18:29:03;28.90;;;15.70;;
69026;SDS011;56080;47.594;19.116;2022-12-18T18:34:02;38.60;;;18.80;;
69026;SDS011;56080;47.594;19.116;2022-12-18T18:39:03;38.60;;;18.80;;
69026;SDS011;56080;47.594;19.116;2022-12-18T18:44:05;38.80;;;20.00;;
69026;SDS011;56080;47.594;19.116;2022-12-18T18:49:02;38.80;;;20.00;;
69026;SDS011;56080;47.594;19.116;2022-12-18T18:54:02;39.90;;;19.20;;
69026;SDS011;56080;47.594;19.116;2022-12-18T19:04:01;37.20;;;19.30;;
69026;SDS011;56080;47.594;19.116;2022-12-18T19:09:02;37.20;;;19.30;;
69026;SDS011;56080;47.594;19.116;2022-12-18T19:14:02;39.30;;;21.20;;
69026;SDS011;56080;47.594;19.116;2022-12-18T19:19:01;39.30;;;21.20;;
69026;SDS011;56080;47.594;19.116;2022-12-18T19:24:01;40.60;;;22.10;;
69026;SDS011;56080;47.594;19.116;2022-12-18T19:29:03;40.60;;;22.10;;
69026;SDS011;56080;47.594;19.116;2022-12-18T19:34:00;50.00;;;26.00;;
69026;SDS011;56080;47.594;19.116;2022-12-18T19:39:06;50.00;;;26.00;;
69026;SDS011;56080;47.594;19.116;2022-12-18T19:44:01;37.40;;;20.00;;
69026;SDS011;56080;47.594;19.116;2022-12-18T19:49:03;37.40;;;20.00;;
69026;SDS011;56080;47.594;19.116;2022-12-18T19:54:09;41.70;;;21.20;;
69026;SDS011;56080;47.594;19.116;2022-12-18T19:59:02;41.70;;;21.20;;
69026;SDS011;56080;47.594;19.116;2022-12-18T20:04:05;38.90;;;20.50;;
69026;SDS011;56080;47.594;19.116;2022-12-18T20:09:03;38.90;;;20.50;;
69026;SDS011;56080;47.594;19.116;2022-12-18T20:14:01;45.60;;;23.30;;
69026;SDS011;56080;47.594;19.116;2022-12-18T20:19:10;45.60;;;23.30;;
69026;SDS011;56080;47.594;19.116;2022-12-18T20:24:00;38.70;;;19.90;;
69026;SDS011;56080;47.594;19.116;2022-12-18T20:29:01;38.70;;;19.90;;
69026;SDS011;56080;47.594;19.116;2022-12-18T20:34:04;40.50;;;20.40;;
69026;SDS011;56080;47.594;19.116;2022-12-18T20:39:03;40.50;;;20.40;;
69026;SDS011;56080;47.594;19.116;2022-12-18T20:44:01;44.20;;;24.00;;
69026;SDS011;56080;47.594;19.116;2022-12-18T20:49:00;44.20;;;24.00;;
69026;SDS011;56080;47.594;19.116;2022-12-18T20:54:03;41.50;;;21.20;;
69026;SDS011;56080;47.594;19.116;2022-12-18T20:59:00;41.50;;;21.20;;
69026;SDS011;56080;47.594;19.116;2022-12-18T21:04:00;37.60;;;22.70;;
69026;SDS011;56080;47.594;19.116;2022-12-18T21:09:01;37.60;;;22.70;;
69026;SDS011;56080;47.594;19.116;2022-12-18T21:14:01;47.30;;;25.60;;
69026;SDS011;56080;47.594;19.116;2022-12-18T21:19:02;47.30;;;25.60;;
69026;SDS011;56080;47.594;19.116;2022-12-18T21:24:00;40.10;;;21.10;;
69026;SDS011;56080;47.594;19.116;2022-12-18T21:29:03;40.10;;;21.10;;
69026;SDS011;56080;47.594;19.116;2022-12-18T21:34:02;57.10;;;31.40;;
69026;SDS011;56080;47.594;19.116;2022-12-18T21:39:02;57.10;;;31.40;;
69026;SDS011;56080;47.594;19.116;2022-12-18T21:44:12;71.30;;;36.50;;
69026;SDS011;56080;47.594;19.116;2022-12-18T21:49:00;71.30;;;36.50;;
69026;SDS011;56080;47.594;19.116;2022-12-18T21:54:00;71.00;;;37.00;;
69026;SDS011;56080;47.594;19.116;2022-12-18T21:59:07;71.00;;;37.00;;
69026;SDS011;56080;47.594;19.116;2022-12-18T22:04:00;64.10;;;32.00;;
69026;SDS011;56080;47.594;19.116;2022-12-18T22:09:00;64.10;;;32.00;;
69026;SDS011;56080;47.594;19.116;2022-12-18T22:14:00;56.10;;;29.40;;
69026;SDS011;56080;47.594;19.116;2022-12-18T22:19:02;56.10;;;29.40;;
69026;SDS011;56080;47.594;19.116;2022-12-18T22:24:04;60.70;;;32.50;;
69026;SDS011;56080;47.594;19.116;2022-12-18T22:29:14;60.70;;;32.50;;
69026;SDS011;56080;47.594;19.116;2022-12-18T22:34:00;59.10;;;30.70;;
69026;SDS011;56080;47.594;19.116;2022-12-18T22:39:01;59.10;;;30.70;;
69026;SDS011;56080;47.594;19.116;2022-12-18T22:44:00;54.90;;;27.30;;
69026;SDS011;56080;47.594;19.116;2022-12-18T22:49:00;54.90;;;27.30;;
69026;SDS011;56080;47.594;19.116;2022-12-18T22:54:00;49.50;;;27.10;;
69026;SDS011;56080;47.594;19.116;2022-12-18T22:59:00;49.50;;;27.10;;
69026;SDS011;56080;47.594;19.116;2022-12-18T23:04:01;46.00;;;23.90;;
69026;SDS011;56080;47.594;19.116;2022-12-18T23:09:12;46.00;;;23.90;;
69026;SDS011;56080;47.594;19.116;2022-12-18T23:14:01;46.60;;;22.80;;
69026;SDS011;56080;47.594;19.116;2022-12-18T23:19:03;46.60;;;22.80;;
69026;SDS011;56080;47.594;19.116;2022-12-18T23:24:00;41.60;;;21.50;;
69026;SDS011;56080;47.594;19.116;2022-12-18T23:29:01;41.60;;;21.50;;
69026;SDS011;56080;47.594;19.116;2022-12-18T23:34:01;42.40;;;21.00;;
69026;SDS011;56080;47.594;19.116;2022-12-18T23:39:03;42.40;;;21.00;;
69026;SDS011;56080;47.594;19.116;2022-12-18T23:44:00;48.60;;;22.80;;
69026;SDS011;56080;47.594;19.116;2022-12-18T23:49:01;48.60;;;22.80;;
69026;SDS011;56080;47.594;19.116;2022-12-18T23:54:01;43.60;;;20.30;;
69026;SDS011;56080;47.594;19.116;2022-12-18T23:59:03;43.60;;;20.30;;
